createdAt,value
2022-10-18T00:00:17.764Z,21.30
2022-10-18T00:03:04.547Z,21.00
2022-10-18T00:05:31.729Z,20.40
2022-10-18T00:07:58.987Z,22.30
2022-10-18T00:10:26.122Z,22.50
2022-10-18T00:12:55.109Z,21.90
2022-10-18T00:15:22.066Z,21.20
2022-10-18T00:17:48.923Z,21.00
2022-10-18T00:20:15.698Z,20.20
2022-10-18T00:22:42.391Z,20.70
2022-10-18T00:25:09.773Z,19.40
2022-10-18T00:27:37.119Z,18.00
2022-10-18T00:30:05.201Z,17.90
2022-10-18T00:32:38.999Z,17.90
2022-10-18T00:35:07.299Z,17.40
2022-10-18T00:37:35.264Z,17.00
2022-10-18T00:40:10.374Z,16.90
2022-10-18T00:42:37.750Z,18.50
2022-10-18T00:45:25.614Z,16.80
2022-10-18T00:48:04.074Z,17.20
2022-10-18T00:50:33.915Z,16.80
2022-10-18T00:53:04.639Z,16.50
2022-10-18T00:55:33.759Z,16.30
2022-10-18T00:58:05.369Z,16.00
2022-10-18T01:00:34.176Z,16.50
2022-10-18T01:03:00.976Z,16.70
2022-10-18T01:05:27.776Z,15.90
2022-10-18T01:08:16.617Z,15.80
2022-10-18T01:10:58.662Z,15.10
2022-10-18T01:13:45.637Z,15.00
2022-10-18T01:16:26.820Z,16.90
2022-10-18T01:19:06.647Z,16.60
2022-10-18T01:21:45.777Z,16.10
2022-10-18T01:24:35.967Z,14.70
2022-10-18T01:27:08.860Z,16.20
2022-10-18T01:30:02.477Z,16.30
2022-10-18T01:32:43.814Z,16.10
2022-10-18T01:35:18.945Z,18.90
2022-10-18T01:37:48.637Z,18.10
2022-10-18T01:40:19.405Z,17.60
2022-10-18T01:42:48.998Z,16.70
2022-10-18T01:45:17.583Z,18.80
2022-10-18T01:50:30.429Z,16.10
2022-10-18T01:52:58.090Z,16.00
2022-10-18T01:55:37.836Z,15.30
2022-10-18T01:58:33.762Z,15.30
2022-10-18T02:03:44.926Z,18.30
2022-10-18T02:06:31.163Z,17.70
2022-10-18T02:09:12.304Z,16.20
2022-10-18T02:14:10.519Z,13.80
2022-10-18T02:16:45.173Z,15.40
2022-10-18T02:19:21.094Z,15.50
2022-10-18T02:21:49.547Z,15.30
2022-10-18T02:24:19.101Z,16.00
2022-10-18T02:26:46.699Z,16.50
2022-10-18T02:29:13.519Z,16.70
2022-10-18T02:31:54.144Z,18.20
2022-10-18T02:34:29.048Z,20.50
2022-10-18T02:37:00.954Z,19.80
2022-10-18T02:39:31.198Z,19.80
2022-10-18T02:41:59.223Z,18.00
2022-10-18T02:44:26.916Z,17.80
2022-10-18T02:46:53.864Z,15.50
2022-10-18T02:49:21.327Z,15.00
2022-10-18T02:51:48.171Z,16.10
2022-10-18T02:54:15.117Z,14.20
2022-10-18T02:56:41.895Z,14.00
2022-10-18T02:59:08.634Z,14.20
2022-10-18T03:01:35.692Z,14.30
2022-10-18T03:04:04.348Z,14.20
2022-10-18T03:06:31.992Z,15.30
2022-10-18T03:08:59.148Z,14.90
2022-10-18T03:14:16.100Z,13.30
2022-10-18T03:16:42.949Z,15.30
2022-10-18T03:19:09.656Z,15.60
2022-10-18T03:21:36.413Z,13.40
2022-10-18T03:24:04.383Z,13.10
2022-10-18T03:26:31.152Z,13.10
2022-10-18T03:28:58.204Z,14.30
2022-10-18T03:31:28.316Z,13.80
2022-10-18T03:33:55.178Z,12.70
2022-10-18T03:36:22.230Z,12.90
2022-10-18T03:38:49.059Z,14.70
2022-10-18T03:41:16.372Z,15.40
2022-10-18T03:43:43.421Z,13.40
2022-10-18T03:46:18.980Z,12.10
2022-10-18T03:48:46.013Z,13.20
2022-10-18T03:51:13.016Z,12.90
2022-10-18T03:53:40.887Z,12.40
2022-10-18T03:56:07.797Z,13.50
2022-10-18T03:58:35.710Z,16.50
2022-10-18T04:01:02.508Z,23.90
2022-10-18T04:03:29.538Z,26.40
2022-10-18T04:05:56.607Z,23.00
2022-10-18T04:08:23.535Z,24.40
2022-10-18T04:10:52.053Z,20.40
2022-10-18T04:13:18.780Z,18.50
2022-10-18T04:16:01.303Z,16.60
2022-10-18T04:18:28.248Z,16.10
2022-10-18T04:20:55.005Z,16.80
2022-10-18T04:23:21.883Z,15.20
2022-10-18T04:25:52.558Z,16.20
2022-10-18T04:28:19.394Z,15.60
2022-10-18T04:30:52.765Z,15.70
2022-10-18T04:33:20.526Z,14.00
2022-10-18T04:35:50.182Z,14.30
2022-10-18T04:38:17.200Z,15.10
2022-10-18T04:40:43.863Z,14.10
2022-10-18T04:43:10.700Z,15.40
2022-10-18T04:45:37.531Z,16.20
2022-10-18T04:48:04.599Z,16.70
2022-10-18T04:50:31.397Z,16.40
2022-10-18T04:53:06.887Z,16.80
2022-10-18T04:55:33.652Z,19.10
2022-10-18T04:58:00.462Z,18.90
2022-10-18T05:00:27.680Z,22.70
2022-10-18T05:02:57.612Z,22.10
2022-10-18T05:05:27.010Z,22.00
2022-10-18T05:07:59.898Z,23.30
2022-10-18T05:10:29.472Z,23.50
2022-10-18T05:12:59.843Z,20.40
2022-10-18T05:15:26.665Z,21.20
2022-10-18T05:17:53.398Z,20.70
2022-10-18T05:20:58.683Z,21.60
2022-10-18T05:26:08.061Z,22.70
2022-10-18T05:28:39.537Z,20.40
2022-10-18T05:31:09.638Z,18.60
2022-10-18T05:33:36.662Z,19.70
2022-10-18T05:36:04.012Z,17.90
2022-10-18T05:38:30.939Z,17.50
2022-10-18T05:40:59.328Z,18.30
2022-10-18T05:43:29.334Z,15.30
2022-10-18T05:45:56.318Z,14.90
2022-10-18T05:48:23.049Z,14.60
2022-10-18T05:50:49.812Z,11.70
2022-10-18T05:53:35.683Z,11.20
2022-10-18T05:56:04.244Z,10.70
2022-10-18T05:58:30.958Z,11.40
2022-10-18T06:01:00.363Z,12.30
2022-10-18T06:03:27.364Z,11.90
2022-10-18T06:05:59.690Z,12.00
2022-10-18T06:08:26.944Z,12.60
2022-10-18T06:11:15.292Z,12.20
2022-10-18T06:13:43.706Z,13.80
2022-10-18T06:16:11.593Z,12.70
2022-10-18T06:18:39.299Z,17.00
2022-10-18T06:21:07.032Z,20.30
2022-10-18T06:23:34.747Z,16.80
2022-10-18T06:26:05.592Z,17.20
2022-10-18T06:28:36.799Z,16.60
2022-10-18T06:31:05.760Z,16.80
2022-10-18T06:33:35.067Z,13.90
2022-10-18T06:36:11.785Z,13.50
2022-10-18T06:38:38.830Z,13.80
2022-10-18T06:41:07.287Z,16.20
2022-10-18T06:43:40.064Z,19.50
2022-10-18T06:46:08.470Z,21.70
2022-10-18T06:48:38.977Z,19.40
2022-10-18T06:51:07.707Z,21.20
2022-10-18T06:53:43.855Z,17.60
2022-10-18T06:56:15.835Z,18.90
2022-10-18T06:58:42.717Z,17.50
2022-10-18T07:01:18.076Z,18.50
2022-10-18T07:04:00.264Z,18.30
2022-10-18T07:06:27.366Z,20.20
2022-10-18T07:08:54.370Z,19.70
2022-10-18T07:11:24.716Z,17.90
2022-10-18T07:14:00.306Z,18.70
2022-10-18T07:16:27.596Z,18.90
2022-10-18T07:18:54.941Z,18.30
2022-10-18T07:21:24.878Z,19.80
2022-10-18T07:23:52.669Z,16.40
2022-10-18T07:26:19.820Z,17.80
2022-10-18T07:28:51.453Z,18.50
2022-10-18T07:31:18.937Z,17.50
2022-10-18T07:33:46.392Z,16.60
2022-10-18T07:36:13.766Z,16.00
2022-10-18T07:38:41.093Z,18.60
2022-10-18T07:41:11.106Z,17.40
2022-10-18T07:43:42.619Z,16.20
2022-10-18T07:46:09.412Z,17.70
2022-10-18T07:48:36.350Z,18.20
2022-10-18T07:51:04.654Z,19.00
2022-10-18T07:53:32.719Z,18.70
2022-10-18T07:56:08.576Z,19.70
2022-10-18T07:58:43.492Z,21.50
2022-10-18T08:01:11.548Z,18.90
2022-10-18T08:03:39.863Z,19.00
2022-10-18T08:06:09.277Z,19.50
2022-10-18T08:08:38.493Z,18.00
2022-10-18T08:11:14.332Z,18.40
2022-10-18T08:13:41.807Z,18.70
2022-10-18T08:16:17.518Z,17.90
2022-10-18T08:18:45.182Z,17.20
2022-10-18T08:21:13.931Z,18.40
2022-10-18T08:23:44.197Z,19.30
2022-10-18T08:28:46.197Z,18.00
2022-10-18T08:31:21.447Z,19.30
2022-10-18T08:33:48.367Z,18.30
2022-10-18T08:36:17.579Z,17.60
2022-10-18T08:38:46.716Z,16.90
2022-10-18T08:41:38.245Z,17.70
2022-10-18T08:44:45.674Z,15.90
2022-10-18T08:47:36.500Z,14.70
2022-10-18T08:50:30.663Z,16.20
2022-10-18T08:53:17.379Z,17.00
2022-10-18T08:55:57.437Z,18.30
2022-10-18T08:58:31.157Z,17.60
2022-10-18T09:01:13.470Z,18.30
2022-10-18T09:04:30.145Z,17.70
2022-10-18T18:52:44.728Z,12.10
2022-10-18T18:55:11.732Z,13.10
2022-10-18T18:57:40.770Z,12.40
2022-10-18T19:00:12.125Z,13.10
2022-10-18T19:02:41.915Z,13.60
2022-10-18T19:05:08.971Z,12.40
2022-10-18T19:07:42.414Z,12.70
2022-10-18T19:10:09.873Z,12.80
2022-10-18T19:12:41.222Z,12.80
2022-10-18T19:15:08.797Z,14.10
2022-10-18T19:17:38.668Z,14.30
2022-10-18T19:20:06.396Z,15.20
2022-10-18T19:22:36.680Z,15.50
2022-10-18T19:25:07.042Z,14.00
2022-10-18T19:27:37.515Z,14.00
2022-10-18T19:32:34.348Z,14.00
2022-10-18T19:35:01.501Z,13.20
2022-10-18T19:37:37.622Z,14.40
2022-10-18T19:40:05.341Z,14.30
2022-10-18T19:42:34.431Z,13.50
2022-10-18T19:45:03.309Z,14.40
2022-10-18T19:47:37.571Z,13.10
2022-10-18T19:50:05.493Z,14.10
2022-10-18T19:52:35.469Z,13.70
2022-10-18T19:55:08.087Z,13.90
2022-10-18T19:57:40.260Z,13.50
2022-10-18T20:00:11.416Z,13.30
2022-10-18T20:02:51.472Z,13.90
2022-10-18T20:05:30.904Z,14.00
2022-10-18T20:08:13.599Z,14.20
2022-10-18T20:10:43.882Z,13.50
2022-10-18T20:13:11.025Z,13.10
2022-10-18T20:15:40.644Z,12.70
2022-10-18T20:18:07.947Z,13.10
2022-10-18T20:20:35.412Z,13.60
2022-10-18T20:23:11.116Z,12.80
2022-10-18T20:26:03.233Z,12.00
2022-10-18T20:28:30.875Z,12.30
2022-10-18T20:31:19.667Z,12.40
2022-10-18T20:33:47.936Z,11.10
2022-10-18T20:36:20.364Z,11.80
2022-10-18T20:38:50.181Z,11.80
2022-10-18T20:41:43.651Z,11.80
2022-10-18T20:44:17.680Z,11.40
2022-10-18T20:46:45.154Z,12.90
2022-10-18T20:49:15.593Z,11.30
2022-10-18T20:51:45.727Z,12.70
2022-10-18T20:54:13.489Z,12.80
2022-10-18T20:56:40.502Z,13.90
2022-10-18T20:59:09.193Z,14.80
2022-10-18T21:01:42.880Z,15.10
2022-10-18T21:04:10.902Z,14.00
2022-10-18T21:06:47.017Z,13.40
2022-10-18T21:09:17.851Z,12.70
2022-10-18T21:11:48.784Z,13.60
2022-10-18T21:14:21.870Z,13.70
2022-10-18T21:16:56.787Z,14.30
2022-10-18T21:19:26.961Z,14.10
2022-10-18T21:21:57.249Z,13.20
2022-10-18T21:24:25.554Z,13.50
2022-10-18T21:26:55.785Z,12.60
2022-10-18T21:29:24.435Z,11.00
2022-10-18T21:31:58.757Z,11.90
2022-10-18T21:34:36.308Z,10.10
2022-10-18T21:37:03.095Z,9.80
2022-10-18T21:39:30.260Z,10.60
2022-10-18T21:42:06.423Z,10.90
2022-10-18T21:44:34.169Z,11.80
2022-10-18T21:47:01.268Z,11.20
2022-10-18T21:49:38.210Z,10.90
2022-10-18T21:52:06.482Z,11.00
2022-10-18T21:54:33.297Z,13.20
2022-10-18T21:57:00.339Z,11.90
2022-10-18T21:59:27.895Z,10.70
2022-10-18T22:01:57.880Z,10.30
2022-10-18T22:04:26.610Z,9.80
2022-10-18T22:06:55.543Z,10.90
2022-10-18T22:09:22.598Z,11.40
2022-10-18T22:11:53.973Z,10.60
2022-10-18T22:14:35.294Z,11.20
2022-10-18T22:17:17.335Z,11.10
2022-10-18T22:19:53.349Z,10.60
2022-10-18T22:22:20.430Z,10.50
2022-10-18T22:24:49.784Z,10.10
2022-10-18T22:27:19.820Z,10.80
2022-10-18T22:29:48.751Z,11.30
2022-10-18T22:32:15.807Z,9.90
2022-10-18T22:34:42.655Z,11.10
2022-10-18T22:37:09.710Z,10.90
2022-10-18T22:39:36.655Z,10.40
2022-10-18T22:42:05.491Z,10.30
2022-10-18T22:44:36.697Z,10.90
2022-10-18T22:47:03.483Z,9.60
2022-10-18T22:49:36.726Z,10.00
2022-10-18T22:52:03.831Z,10.20
2022-10-18T22:54:31.107Z,10.30
2022-10-18T22:56:58.026Z,10.40
2022-10-18T22:59:25.030Z,10.30
2022-10-18T23:01:51.903Z,11.00
2022-10-18T23:04:18.709Z,11.80
2022-10-18T23:06:48.126Z,10.50
2022-10-18T23:09:17.889Z,10.70
2022-10-18T23:11:49.135Z,10.10
2022-10-18T23:14:16.469Z,9.80
2022-10-18T23:16:43.617Z,9.40
2022-10-18T23:19:15.039Z,9.70
2022-10-18T23:21:42.479Z,11.00
2022-10-18T23:24:12.655Z,9.50
2022-10-18T23:26:39.693Z,9.60
2022-10-18T23:29:06.903Z,9.50
2022-10-18T23:31:34.076Z,9.40
2022-10-18T23:34:03.834Z,8.80
2022-10-18T23:36:33.146Z,8.90
2022-10-18T23:39:01.709Z,8.10
2022-10-18T23:41:30.212Z,8.50
2022-10-18T23:44:08.642Z,9.10
2022-10-18T23:46:36.019Z,9.00
2022-10-18T23:49:03.019Z,8.60
2022-10-18T23:51:29.836Z,9.00
2022-10-18T23:53:58.072Z,8.60
2022-10-18T23:56:34.503Z,8.70
2022-10-18T23:59:13.949Z,9.00
